Vicksburg, Mississippi
Current Conditions -  °F | °C
As of 6:15 AM on Wednesday 28 Jan 2015 (Local Time) from KVKS Reporting Station
Clear Clear  
Wind Chill:   Ceiling: Unl
Heat Index:   Visibility: 10mi
Dew Point:   Wind: 8mph
Humidity: 71%   Direction: 120°ESE
Pressure: 30.23"   Gusts: 16mph
Location:  32.35°N, 90.88°W
Report Text: KVKS 281215Z AUTO 12007G14KT 10SM CLR 07/02 A3023 RMK A01
Loading
Personal Weather Stations






























Interactive Weather Map New forecast layout! Learn more

10-Day Weather Forecast

Advertisements
Track Severe Weather on mobile